Time;durP1;ratioP1;P1;durP2;ratioP2;P2;SDS_P1;SDS_P2;PMS_P1;PMS_P2;Temp;Humidity;BMP_temperature;BMP_pressure;BME280_temperature;BME280_humidity;BME280_pressure;Samples;Min_cycle;Max_cycle;Signal;HPM_P1;HPM_P2
2024/02/13 00:01:22;;;;;;;5.43;3.05;;;4.50;99.90;;;4.30;100.00;100444.44;6097367;23;20154;-67
2024/02/13 00:03:51;;;;;;;3.17;2.45;;;4.50;99.90;;;4.38;100.00;100452.44;6097818;23;20170;-66
2024/02/13 00:06:20;;;;;;;7.70;4.03;;;4.60;99.90;;;4.23;100.00;100453.31;6097648;23;20158;-66
2024/02/13 00:08:49;;;;;;;6.78;4.18;;;4.50;99.90;;;4.34;100.00;100458.31;6097225;23;20255;-65
2024/02/13 00:11:18;;;;;;;7.85;3.70;;;4.50;99.90;;;4.34;100.00;100461.00;6097050;23;20182;-66
2024/02/13 00:13:47;;;;;;;6.60;4.18;;;4.50;99.90;;;4.32;100.00;100469.19;6096777;23;20162;-67
2024/02/13 00:16:18;;;;;;;9.05;5.80;;;4.50;99.90;;;4.42;100.00;100463.66;6097208;23;20167;-67
2024/02/13 00:18:48;;;;;;;4.72;3.10;;;4.50;99.90;;;4.41;100.00;100475.38;6096736;23;20193;-65
2024/02/13 00:21:17;;;;;;;2.55;2.35;;;4.50;99.90;;;4.54;100.00;100475.66;6097603;23;20181;-67
2024/02/13 00:23:46;;;;;;;6.40;2.67;;;4.60;99.90;;;4.67;100.00;100483.16;6096612;23;20167;-66
2024/02/13 00:26:15;;;;;;;4.07;3.65;;;4.70;99.90;;;4.67;100.00;100489.34;6096910;23;20166;-66
2024/02/13 00:28:45;;;;;;;4.07;1.77;;;4.70;99.90;;;4.74;100.00;100489.50;6097229;23;20201;-67
2024/02/13 00:31:14;;;;;;;9.80;4.25;;;4.80;99.90;;;4.86;100.00;100489.94;6096895;23;20175;-69
2024/02/13 00:33:44;;;;;;;7.57;5.45;;;4.90;99.90;;;4.90;100.00;100485.88;6096854;23;20199;-68
2024/02/13 00:36:15;;;;;;;4.35;2.83;;;4.90;99.90;;;5.00;100.00;100484.66;6097303;23;20234;-67
2024/02/13 00:38:45;;;;;;;6.90;5.45;;;4.90;99.90;;;5.04;100.00;100493.19;6096686;23;20238;-67
2024/02/13 00:41:15;;;;;;;3.45;2.80;;;5.00;99.90;;;5.00;100.00;100497.22;6096878;23;20151;-66
2024/02/13 00:43:44;;;;;;;9.75;4.50;;;5.10;99.90;;;5.00;100.00;100491.88;6097198;23;20239;-67
2024/02/13 00:46:13;;;;;;;3.03;2.80;;;5.00;99.90;;;5.01;100.00;100502.44;6096996;23;20172;-67
2024/02/13 00:48:42;;;;;;;9.60;5.68;;;5.00;99.90;;;5.04;100.00;100506.59;6097224;23;20237;-67
2024/02/13 00:51:12;;;;;;;5.70;2.30;;;5.10;99.90;;;5.01;100.00;100502.44;6071587;23;20652;-65
2024/02/13 00:53:41;;;;;;;4.05;1.77;;;5.10;99.90;;;5.03;100.00;100510.31;6072312;23;20252;-65
2024/02/13 00:56:11;;;;;;;4.78;2.58;;;5.10;99.90;;;4.98;100.00;100512.69;6097498;23;20177;-67
2024/02/13 00:58:43;;;;;;;2.05;1.73;;;5.00;99.90;;;4.91;100.00;100517.06;6097862;23;20245;-66
2024/02/13 01:01:12;;;;;;;3.00;2.70;;;5.00;99.90;;;4.89;100.00;100530.63;6097351;23;20152;-66
2024/02/13 01:03:41;;;;;;;5.07;4.22;;;5.00;99.90;;;4.95;100.00;100537.97;6097412;23;20167;-65
2024/02/13 01:06:12;;;;;;;6.72;3.17;;;5.00;99.90;;;5.11;100.00;100534.38;6097214;23;20162;-66
2024/02/13 01:08:41;;;;;;;3.88;2.70;;;5.10;99.90;;;5.13;100.00;100537.75;6097294;23;20238;-65
2024/02/13 01:11:10;;;;;;;4.70;3.47;;;5.10;99.90;;;5.07;100.00;100535.75;6071349;23;20170;-66
2024/02/13 01:13:38;;;;;;;4.28;3.90;;;5.10;99.90;;;4.97;100.00;100537.81;6097056;23;20174;-67
2024/02/13 01:16:07;;;;;;;5.53;3.10;;;5.10;99.90;;;4.91;100.00;100535.81;6097144;23;20631;-67
2024/02/13 01:18:36;;;;;;;4.07;2.35;;;5.00;99.90;;;4.84;100.00;100542.91;6097221;23;20188;-66
2024/02/13 01:21:11;;;;;;;5.05;4.60;;;5.00;99.90;;;4.84;100.00;100540.22;6097152;23;20174;-66
2024/02/13 01:23:41;;;;;;;7.85;5.40;;;4.90;99.90;;;4.93;100.00;100556.09;6097152;23;20157;-67
2024/02/13 01:26:10;;;;;;;6.13;4.10;;;5.00;99.90;;;4.96;100.00;100549.53;6097080;23;20152;-65
2024/02/13 01:28:39;;;;;;;4.07;3.55;;;5.00;99.90;;;4.96;100.00;100557.59;6097037;23;20192;-67
2024/02/13 01:31:08;;;;;;;10.60;6.88;;;5.00;99.90;;;4.99;100.00;100563.44;6096780;23;20241;-65
2024/02/13 01:33:37;;;;;;;4.20;3.65;;;5.00;99.90;;;5.06;100.00;100568.94;6096752;23;20167;-68
2024/02/13 01:36:07;;;;;;;3.40;2.80;;;5.00;99.90;;;5.11;100.00;100561.22;6096293;23;20170;-66
2024/02/13 01:38:36;;;;;;;7.85;4.40;;;5.10;99.90;;;5.14;100.00;100571.56;6096546;23;20197;-63
2024/02/13 01:41:06;;;;;;;4.10;3.08;;;5.10;99.90;;;5.12;100.00;100562.88;6097018;23;20163;-68
2024/02/13 01:43:35;;;;;;;5.45;3.70;;;5.10;99.90;;;5.13;100.00;100576.09;6096572;23;20234;-67
2024/02/13 01:46:06;;;;;;;2.70;1.80;;;5.10;99.90;;;5.13;100.00;100575.28;6096750;23;20166;-67
2024/02/13 01:48:36;;;;;;;2.47;2.22;;;5.10;99.90;;;5.11;100.00;100586.19;6097296;23;20200;-66
2024/02/13 01:51:07;;;;;;;5.32;4.68;;;5.10;99.90;;;5.18;100.00;100594.38;6070881;23;20186;-63
2024/02/13 01:53:37;;;;;;;3.65;2.97;;;5.20;99.90;;;5.17;100.00;100587.34;6096641;23;20182;-66
2024/02/13 01:56:11;;;;;;;3.45;2.60;;;5.20;99.90;;;5.09;100.00;100584.66;6096957;23;20233;-67
2024/02/13 01:58:40;;;;;;;9.38;5.15;;;5.10;99.90;;;5.13;100.00;100591.38;6096729;23;20252;-65
2024/02/13 02:01:11;;;;;;;7.22;3.75;;;5.20;99.90;;;5.10;100.00;100591.72;6096489;23;20620;-66
2024/02/13 02:03:41;;;;;;;7.82;3.88;;;5.10;99.90;;;5.07;100.00;100592.06;6096541;23;20235;-67
2024/02/13 02:06:09;;;;;;;6.10;3.00;;;5.10;99.90;;;5.00;100.00;100593.75;6096455;23;20583;-68
2024/02/13 02:08:39;;;;;;;3.15;1.70;;;5.10;99.90;;;5.00;100.00;100597.28;6096235;23;20672;-66
2024/02/13 02:11:10;;;;;;;6.15;2.47;;;5.00;99.90;;;5.04;100.00;100597.78;6096530;23;20154;-67
2024/02/13 02:13:39;;;;;;;4.13;2.63;;;5.00;99.90;;;5.00;100.00;100599.13;6096514;23;20258;-66
2024/02/13 02:16:08;;;;;;;2.38;2.00;;;5.10;99.90;;;4.95;100.00;100605.00;6096483;23;20592;-66
2024/02/13 02:18:36;;;;;;;6.15;5.30;;;5.00;99.90;;;5.03;100.00;100607.69;6097076;23;20220;-65
2024/02/13 02:21:05;;;;;;;4.85;4.35;;;5.10;99.90;;;5.03;100.00;100602.31;6096838;23;20155;-67
2024/02/13 02:23:34;;;;;;;5.18;2.80;;;5.10;99.90;;;5.01;100.00;100617.75;6096509;23;20229;-66
2024/02/13 02:26:06;;;;;;;4.63;3.90;;;5.10;99.90;;;4.91;100.00;100618.94;6096268;23;20174;-65
2024/02/13 02:28:35;;;;;;;3.88;3.45;;;5.00;99.90;;;4.88;100.00;100620.13;6096411;23;20213;-66
2024/02/13 02:31:05;;;;;;;3.10;2.30;;;5.00;99.90;;;4.92;100.00;100625.97;6096879;23;20589;-69
2024/02/13 02:33:33;;;;;;;4.78;4.32;;;4.90;99.90;;;4.97;100.00;100637.03;6096716;23;20183;-64
2024/02/13 02:36:02;;;;;;;4.43;2.40;;;5.00;99.90;;;5.09;100.00;100641.00;6096199;23;20155;-66
2024/02/13 02:38:30;;;;;;;4.15;2.30;;;5.00;99.90;;;5.16;100.00;100639.31;6096334;23;20211;-65
2024/02/13 02:40:59;;;;;;;7.47;2.83;;;5.10;99.90;;;5.13;100.00;100639.66;6096265;23;20607;-68
2024/02/13 02:43:28;;;;;;;4.35;3.65;;;5.10;99.90;;;5.06;100.00;100641.34;6096222;23;20154;-67
2024/02/13 02:45:58;;;;;;;2.35;1.73;;;5.10;99.90;;;4.93;100.00;100643.75;6096231;23;20545;-66
2024/02/13 02:48:27;;;;;;;3.45;1.90;;;5.00;99.90;;;4.86;100.00;100643.59;6098012;23;20218;-65
2024/02/13 02:50:56;;;;;;;5.50;1.65;;;5.00;99.90;;;4.79;100.00;100648.78;6098422;23;20562;-67
2024/02/13 02:53:25;;;;;;;4.55;4.25;;;4.90;99.90;;;4.67;100.00;100652.00;6098503;23;20174;-65
2024/02/13 02:55:55;;;;;;;2.92;2.58;;;4.80;99.90;;;4.73;100.00;100660.22;6098400;23;20170;-66
2024/02/13 02:58:24;;;;;;;3.95;2.97;;;4.80;99.90;;;4.75;100.00;100666.22;6097646;23;20217;-66
2024/02/13 03:00:54;;;;;;;4.43;2.17;;;4.80;99.90;;;4.67;100.00;100673.44;6097984;23;20167;-66
2024/02/13 03:03:23;;;;;;;3.53;2.28;;;4.80;99.90;;;4.65;100.00;100673.59;6097680;23;20183;-67
2024/02/13 03:05:52;;;;;;;2.80;2.60;;;4.80;99.90;;;4.52;100.00;100684.00;6097848;23;20168;-66
2024/02/13 03:08:21;;;;;;;3.45;2.83;;;4.60;99.90;;;4.52;100.00;100683.16;6097644;23;20210;-66
2024/02/13 03:10:49;;;;;;;2.85;2.05;;;4.60;99.90;;;4.49;100.00;100683.50;6097630;23;20171;-68
2024/02/13 03:13:18;;;;;;;1.05;0.88;;;4.60;99.90;;;4.43;100.00;100695.72;6097657;23;20178;-66
2024/02/13 03:15:46;;;;;;;5.28;4.78;;;4.60;99.90;;;4.46;100.00;100698.06;6097137;23;20167;-66
2024/02/13 03:18:17;;;;;;;2.13;1.52;;;4.60;99.90;;;4.31;100.00;100694.38;6097294;23;20216;-66
2024/02/13 03:20:47;;;;;;;2.13;1.35;;;4.50;99.90;;;4.21;100.00;100697.22;6097432;23;20195;-66
2024/02/13 03:23:16;;;;;;;2.55;1.98;;;4.40;99.90;;;4.36;100.00;100698.22;6097646;23;20169;-67
2024/02/13 03:25:44;;;;;;;5.18;3.63;;;4.40;99.90;;;4.59;100.00;100710.97;6097634;23;20158;-67
2024/02/13 03:28:13;;;;;;;2.55;2.35;;;4.60;99.90;;;4.77;100.00;100711.63;6097694;23;20585;-66
2024/02/13 03:30:41;;;;;;;1.85;1.73;;;4.70;99.90;;;4.77;100.00;100719.69;6097734;23;20159;-65
2024/02/13 03:33:10;;;;;;;5.05;2.15;;;4.70;99.90;;;4.92;100.00;100719.84;6097901;23;20182;-66
2024/02/13 03:35:40;;;;;;;2.03;1.92;;;4.80;99.90;;;5.04;100.00;100721.13;6097649;23;20166;-68
2024/02/13 03:38:08;;;;;;;2.70;2.50;;;5.00;99.90;;;5.07;100.00;100728.88;6097536;23;20277;-68
2024/02/13 03:40:36;;;;;;;2.85;2.55;;;5.00;99.90;;;5.16;100.00;100735.88;6097602;23;20618;-67
2024/02/13 03:43:05;;;;;;;1.60;1.50;;;5.10;99.90;;;5.19;100.00;100735.53;6097252;23;20159;-67
2024/02/13 03:45:34;;;;;;;1.77;1.35;;;5.10;99.90;;;5.27;100.00;100743.56;6097117;23;20158;-68
2024/02/13 03:48:02;;;;;;;2.45;2.25;;;5.20;99.90;;;5.31;100.00;100752.94;6097005;23;20572;-66
2024/02/13 03:50:31;;;;;;;1.20;1.10;;;5.20;99.90;;;5.32;100.00;100751.94;6096780;23;20204;-68
2024/02/13 03:53:01;;;;;;;5.65;1.70;;;5.30;99.90;;;5.24;100.00;100755.47;6097324;23;20171;-67
2024/02/13 03:55:29;;;;;;;2.55;2.35;;;5.20;99.90;;;5.30;100.00;100756.63;6097488;23;20275;-67
2024/02/13 03:57:58;;;;;;;6.88;1.77;;;5.30;99.90;;;5.34;100.00;100755.28;6097729;23;20206;-68
2024/02/13 04:00:26;;;;;;;2.85;2.10;;;5.30;99.90;;;5.43;100.00;100770.34;6097152;23;20171;-67
2024/02/13 04:02:55;;;;;;;2.03;0.95;;;5.30;99.90;;;5.31;100.00;100769.06;6097300;23;20652;-66
2024/02/13 04:05:24;;;;;;;3.60;2.33;;;5.30;99.90;;;5.45;100.00;100773.72;6096900;23;20167;-68
2024/02/13 04:07:54;;;;;;;1.30;1.00;;;5.30;99.90;;;5.47;100.00;100779.72;6097492;23;20526;-65
2024/02/13 04:10:24;;;;;;;1.98;1.40;;;5.40;99.90;;;5.49;100.00;100795.66;6097114;23;20472;-66
2024/02/13 04:12:53;;;;;;;3.40;1.73;;;5.40;99.90;;;5.47;100.00;100793.16;6097051;23;20179;-64
2024/02/13 04:15:22;;;;;;;1.73;1.63;;;5.40;99.90;;;5.37;100.00;100795.22;6071391;23;20206;-66
2024/02/13 04:17:51;;;;;;;2.05;1.10;;;5.40;99.90;;;5.37;100.00;100800.56;6097434;23;20218;-69
2024/02/13 04:20:19;;;;;;;1.52;1.20;;;5.40;99.90;;;5.43;100.00;100799.03;6097091;23;20168;-66
2024/02/13 04:22:48;;;;;;;1.58;1.20;;;5.40;99.90;;;5.42;100.00;100806.25;6096728;23;20313;-65
2024/02/13 04:25:16;;;;;;;3.22;1.75;;;5.40;66.60;;;5.41;100.00;100796.53;6096785;23;20175;-67
2024/02/13 04:27:46;;;;;;;1.02;0.93;;;5.40;96.80;;;5.36;100.00;100801.56;6096759;23;20526;-67
2024/02/13 04:30:15;;;;;;;1.65;1.30;;;5.40;93.10;;;5.30;100.00;100802.25;6096562;23;20222;-67
2024/02/13 04:32:44;;;;;;;1.05;0.90;;;5.30;99.90;;;5.29;100.00;100807.78;6096587;23;20190;-68
2024/02/13 04:35:12;;;;;;;5.07;1.10;;;5.30;99.90;;;5.22;100.00;100810.31;6096724;23;20177;-67
2024/02/13 04:37:40;;;;;;;3.22;1.70;;;5.20;99.90;;;5.26;100.00;100819.69;6096905;23;20526;-67
2024/02/13 04:40:10;;;;;;;2.88;1.52;;;5.30;99.90;;;5.22;100.00;100823.75;6098290;23;20178;-65
2024/02/13 04:42:42;;;;;;;1.38;0.70;;;5.20;99.90;;;5.37;100.00;100827.41;6098295;23;20217;-66
2024/02/13 04:45:11;;;;;;;1.55;1.08;;;5.30;99.90;;;5.38;100.00;100821.00;6096979;23;20235;-64
2024/02/13 04:47:40;;;;;;;2.50;0.82;;;5.30;99.90;;;5.41;100.00;100820.69;6096485;23;20187;-66
2024/02/13 04:50:09;;;;;;;2.80;2.13;;;5.40;99.90;;;5.31;100.00;100829.91;6097408;23;20711;-66
2024/02/13 04:52:43;;;;;;;1.83;1.73;;;5.30;99.90;;;5.31;100.00;100835.28;6096887;23;20162;-65
2024/02/13 04:55:11;;;;;;;2.83;1.35;;;5.30;99.90;;;5.38;100.00;100829.06;6096951;23;20230;-65
2024/02/13 04:57:40;;;;;;;2.35;1.50;;;5.30;99.90;;;5.31;100.00;100836.13;6097034;23;20183;-65
2024/02/13 05:00:18;;;;;;;1.60;1.35;;;5.30;99.80;;;5.37;100.00;100842.66;6097254;23;20608;-66
2024/02/13 05:02:50;;;;;;;1.10;0.98;;;5.30;99.90;;;5.34;100.00;100835.78;6096948;23;20179;-67
2024/02/13 05:08:06;;;;;;;1.45;0.98;;;5.30;99.90;;;5.17;100.00;100828.78;6097117;23;20611;-67
2024/02/13 05:10:35;;;;;;;3.53;2.13;;;5.30;99.90;;;4.90;100.00;100842.50;6097220;23;20227;-65
2024/02/13 05:13:04;;;;;;;1.75;1.35;;;5.10;99.90;;;4.82;100.00;100836.13;6098458;23;20191;-67
2024/02/13 05:15:35;;;;;;;1.70;1.27;;;5.00;99.90;;;4.72;100.00;100837.28;6098896;23;20159;-68
2024/02/13 05:18:06;;;;;;;2.05;1.08;;;4.90;99.90;;;4.81;100.00;100842.50;6098565;23;20186;-66
2024/02/13 05:20:35;;;;;;;2.17;1.63;;;4.80;99.90;;;4.80;100.00;100843.50;6073801;23;20634;-66
2024/02/13 05:23:04;;;;;;;6.63;1.80;;;4.90;99.90;;;4.89;100.00;100854.25;6098365;23;20566;-67
2024/02/13 05:25:32;;;;;;;0.95;0.85;;;4.90;99.90;;;4.94;100.00;100850.03;6097037;23;20151;-65
2024/02/13 05:28:01;;;;;;;1.30;1.13;;;4.90;99.90;;;5.04;100.00;100861.44;6096703;23;20183;-67
2024/02/13 05:30:29;;;;;;;1.75;1.25;;;5.00;99.90;;;5.14;100.00;100861.28;6096505;23;20158;-66
2024/02/13 05:32:59;;;;;;;1.30;1.13;;;5.00;99.90;;;5.19;100.00;100864.28;6096626;23;20536;-66
2024/02/13 05:35:28;;;;;;;2.80;2.00;;;5.10;99.90;;;5.15;100.00;100862.97;6100540;23;20174;-67
2024/02/13 05:37:56;;;;;;;2.00;1.20;;;5.10;99.90;;;5.11;100.00;100866.97;6105264;23;20199;-67
2024/02/13 05:40:24;;;;;;;2.80;1.55;;;5.10;99.90;;;5.14;100.00;100877.38;6101800;23;20163;-66
2024/02/13 05:42:54;;;;;;;1.02;0.93;;;5.10;99.90;;;5.13;100.00;100878.41;6102759;23;20152;-66
2024/02/13 05:45:23;;;;;;;2.17;1.98;;;5.10;99.90;;;5.00;100.00;100880.72;6103224;23;20158;-65
2024/02/13 05:47:51;;;;;;;1.98;0.85;;;5.10;99.90;;;4.81;100.00;100882.72;6102716;23;20199;-67
2024/02/13 05:50:22;;;;;;;2.47;2.00;;;4.90;99.90;;;4.78;100.00;100887.56;6102808;23;20495;-68
2024/02/13 05:52:52;;;;;;;1.92;1.63;;;4.80;99.90;;;4.84;100.00;100880.72;6103218;23;20517;-67
2024/02/13 05:55:21;;;;;;;1.33;1.23;;;4.80;99.90;;;4.79;100.00;100895.44;6103107;23;20193;-68
2024/02/13 05:57:49;;;;;;;2.00;1.48;;;4.80;99.90;;;4.76;100.00;100895.78;6102039;23;20558;-67
2024/02/13 06:00:18;;;;;;;1.70;0.77;;;4.80;99.90;;;4.74;100.00;100897.75;6101025;23;20159;-67
2024/02/13 06:02:47;;;;;;;2.83;1.75;;;4.80;99.90;;;4.63;100.00;100894.56;6100827;23;20250;-67
2024/02/13 06:05:15;;;;;;;3.45;1.90;;;4.70;99.90;;;4.66;100.00;100900.44;6100470;23;20154;-68
2024/02/13 06:07:45;;;;;;;1.10;0.90;;;4.70;99.90;;;4.63;100.00;100903.47;6100341;23;20581;-67
2024/02/13 06:10:14;;;;;;;2.30;1.50;;;4.70;99.90;;;4.62;100.00;100909.81;6100200;23;20155;-67
2024/02/13 06:12:42;;;;;;;1.42;1.33;;;4.70;99.90;;;4.69;100.00;100913.53;6101677;23;20175;-67
2024/02/13 06:15:11;;;;;;;2.00;1.08;;;4.70;99.90;;;4.76;100.00;100917.22;6101352;23;20520;-66
2024/02/13 06:17:40;;;;;;;2.08;1.67;;;4.70;99.90;;;4.82;100.00;100926.44;6102921;23;20193;-68
2024/02/13 06:20:12;;;;;;;4.35;2.17;;;4.80;99.90;;;4.66;100.00;100921.88;6105530;23;20170;-66
2024/02/13 06:22:41;;;;;;;1.75;1.42;;;4.70;99.90;;;4.64;100.00;100923.91;6078567;23;20190;-67
2024/02/13 06:25:12;;;;;;;3.40;3.10;;;4.70;99.90;;;4.69;100.00;100937.66;6103216;23;20151;-67
2024/02/13 06:27:41;;;;;;;4.07;3.72;;;4.70;99.90;;;4.73;100.00;100932.81;6101969;23;20197;-67
2024/02/13 06:30:11;;;;;;;2.17;2.03;;;4.70;99.90;;;4.82;100.00;100935.34;6100930;23;20532;-66
2024/02/13 06:32:39;;;;;;;1.38;1.15;;;4.80;99.90;;;4.77;100.00;100940.34;6101414;23;20168;-67
2024/02/13 06:35:08;;;;;;;2.60;1.15;;;4.80;99.90;;;4.84;100.00;100942.38;6102597;23;20557;-67
2024/02/13 06:37:39;;;;;;;1.63;1.52;;;4.80;99.90;;;4.98;100.00;100947.09;6101401;23;20272;-66
2024/02/13 06:40:11;;;;;;;2.33;1.35;;;4.90;99.90;;;5.02;100.00;100943.09;6101183;23;20158;-66
2024/02/13 06:42:39;;;;;;;5.15;4.03;;;4.90;99.90;;;5.09;100.00;100944.09;6103082;23;20599;-67
2024/02/13 06:45:10;;;;;;;13.10;3.70;;;5.00;99.90;;;5.15;100.00;100951.47;6102281;23;20156;-67
2024/02/13 06:47:39;;;;;;;2.08;1.85;;;5.10;99.90;;;5.19;100.00;100955.50;6102862;23;20584;-65
2024/02/13 06:50:11;;;;;;;3.03;2.35;;;5.10;99.90;;;5.11;100.00;100955.50;6103546;23;20178;-66
2024/02/13 06:52:41;;;;;;;4.20;3.80;;;5.10;99.90;;;5.16;100.00;100954.00;6104517;23;20564;-66
2024/02/13 06:55:13;;;;;;;2.38;1.50;;;5.10;99.90;;;5.17;100.00;100974.47;6102580;23;20183;-67
2024/02/13 06:57:41;;;;;;;2.83;2.00;;;5.10;99.90;;;5.30;100.00;100973.97;6076461;23;20195;-68
2024/02/13 07:00:13;;;;;;;4.05;1.92;;;5.20;99.90;;;5.23;100.00;100970.25;6104053;23;20608;-67
2024/02/13 07:06:30;;;;;;;1.45;1.35;;;5.10;99.90;;;4.95;100.00;100979.59;6103428;23;20238;-68
2024/02/13 07:09:18;;;;;;;16.55;3.47;;;5.00;99.90;;;5.04;100.00;100989.34;6104110;23;20245;-66
2024/02/13 07:11:48;;;;;;;5.72;2.40;;;5.00;99.90;;;5.07;100.00;100989.03;6102543;23;20183;-66
2024/02/13 07:14:16;;;;;;;3.83;2.50;;;5.10;99.90;;;5.15;100.00;100991.72;6102540;23;20198;-67
2024/02/13 07:16:48;;;;;;;3.15;2.35;;;5.10;99.90;;;5.20;100.00;100995.59;6102136;23;20253;-66
2024/02/13 07:19:16;;;;;;;4.18;2.35;;;5.20;99.90;;;5.36;100.00;100989.41;6099120;23;20235;-68
2024/02/13 07:21:45;;;;;;;2.40;1.95;;;5.30;99.90;;;5.48;100.00;100993.44;6098434;23;20171;-67
2024/02/13 07:24:13;;;;;;;4.80;3.35;;;5.40;99.90;;;5.29;100.00;100998.28;6099565;23;20151;-67
2024/02/13 07:26:42;;;;;;;2.00;1.70;;;5.20;99.90;;;5.41;100.00;101000.50;6099740;23;20167;-67
2024/02/13 07:29:12;;;;;;;1.75;1.45;;;5.30;99.90;;;5.56;100.00;101001.53;6098545;23;20221;-67
2024/02/13 07:31:41;;;;;;;3.00;2.80;;;5.40;99.90;;;5.57;100.00;101003.16;6099467;23;20156;-67
2024/02/13 07:34:09;;;;;;;2.70;1.55;;;5.40;94.30;;;5.57;100.00;101005.84;6099386;23;20163;-68
2024/02/13 07:36:38;;;;;;;8.43;2.78;;;5.50;55.30;;;5.81;100.00;101015.75;6098979;23;20176;-68
2024/02/13 07:39:09;;;;;;;2.20;1.88;;;5.60;97.90;;;5.73;100.00;101014.94;6099306;23;20648;-68
2024/02/13 07:41:38;;;;;;;3.80;3.50;;;5.60;9.60;;;5.73;100.00;101020.28;6101892;23;20215;-68
2024/02/13 07:44:07;;;;;;;3.30;2.78;;;5.70;1.00;;;5.88;100.00;101022.19;6105050;23;20197;-70
2024/02/13 07:46:38;;;;;;;1.98;1.83;;;5.80;1.00;;;5.99;100.00;101023.69;6101460;23;20183;-68
2024/02/13 07:49:07;;;;;;;3.55;3.25;;;5.80;1.00;;;5.96;100.00;101029.38;6097589;23;20203;-68
2024/02/13 07:51:37;;;;;;;4.03;3.72;;;5.80;1.00;;;6.02;100.00;101040.31;6097772;23;20190;-68
2024/02/13 07:54:06;;;;;;;2.33;1.55;;;5.90;1.00;;;5.95;100.00;101033.09;6097504;23;20195;-67
2024/02/13 07:56:35;;;;;;;2.75;1.77;;;5.90;1.00;;;5.91;100.00;101031.72;6097008;23;20174;-68
2024/02/13 07:59:03;;;;;;;2.70;2.45;;;5.80;1.00;;;5.89;100.00;101033.75;6097201;23;20608;-68
2024/02/13 08:01:33;;;;;;;7.65;3.75;;;5.70;1.00;;;5.97;100.00;101036.44;6097715;23;20161;-69
2024/02/13 08:04:02;;;;;;;3.85;1.73;;;5.80;1.00;;;5.90;100.00;101035.44;6097612;23;20492;-67
2024/02/13 08:06:31;;;;;;;30.17;3.53;;;5.80;1.00;;;5.83;100.00;101039.78;6097770;23;20152;-68
2024/02/13 08:09:01;;;;;;;1.00;0.90;;;5.80;1.00;;;5.73;100.00;101041.78;6097740;23;20238;-67
2024/02/13 08:11:30;;;;;;;5.53;3.00;;;5.70;1.00;;;5.78;100.00;101036.75;6097140;23;20156;-67
2024/02/13 08:13:58;;;;;;;3.42;1.50;;;5.70;1.00;;;5.84;100.00;101036.94;6097232;23;20228;-68
2024/02/13 08:16:29;;;;;;;4.70;2.75;;;5.80;1.00;;;6.14;100.00;101046.19;6097078;23;20183;-67
2024/02/13 08:18:57;;;;;;;4.13;3.72;;;5.90;1.00;;;6.22;100.00;101046.16;6097172;23;20381;-68
2024/02/13 08:21:27;;;;;;;3.33;2.03;;;6.00;1.00;;;6.35;100.00;101041.09;6096991;23;20183;-69
2024/02/13 08:23:56;;;;;;;3.58;2.80;;;6.10;1.00;;;6.31;100.00;101055.88;6097281;23;20171;-67
2024/02/13 08:26:24;;;;;;;4.10;3.55;;;6.10;1.00;;;6.38;100.00;101048.84;6096981;23;20223;-67
2024/02/13 08:28:53;;;;;;;4.18;2.00;;;6.20;1.00;;;6.28;100.00;101050.03;6096859;23;20715;-68
2024/02/13 08:31:21;;;;;;;3.33;2.42;;;6.20;99.90;;;6.46;100.00;101050.66;6096859;23;20180;-68
2024/02/13 08:33:49;;;;;;;3.75;2.88;;;6.30;99.90;;;6.53;100.00;101052.47;6096987;23;20247;-68
2024/02/13 08:36:19;;;;;;;3.30;1.90;;;6.30;99.90;;;6.61;100.00;101057.00;6096816;23;20175;-68
2024/02/13 08:38:49;;;;;;;3.67;3.38;;;6.40;99.90;;;6.60;100.00;101055.31;6096946;23;20229;-69
2024/02/13 08:41:17;;;;;;;5.60;2.70;;;6.40;1.00;;;6.59;100.00;101056.31;6096693;23;20155;-69
2024/02/13 08:43:47;;;;;;;2.83;2.17;;;6.50;99.90;;;6.81;100.00;101060.97;6096750;23;20155;-70
2024/02/13 08:46:19;;;;;;;3.20;1.98;;;6.60;99.90;;;6.90;100.00;101059.09;6096737;23;20242;-68
2024/02/13 08:48:47;;;;;;;3.75;3.45;;;6.70;22.50;;;6.80;100.00;101063.81;6096144;23;20198;-70
2024/02/13 08:51:16;;;;;;;1.35;1.25;;;6.70;99.90;;;6.75;100.00;101066.19;6096958;23;20159;-68
2024/02/13 08:53:46;;;;;;;4.65;3.60;;;6.60;99.90;;;6.74;100.00;101061.81;6096895;23;20167;-68
2024/02/13 08:56:16;;;;;;;3.25;1.75;;;6.60;99.90;;;6.95;100.00;101070.16;6097512;23;20190;-69
2024/02/13 08:58:44;;;;;;;5.18;3.30;;;6.80;1.00;;;6.85;100.00;101070.38;6104700;23;20238;-68
2024/02/13 09:01:13;;;;;;;4.10;2.50;;;6.80;27.20;;;6.94;100.00;101079.25;6098920;23;20156;-68
2024/02/13 09:03:42;;;;;;;2.53;1.35;;;6.80;99.90;;;6.99;100.00;101076.88;6097176;23;20167;-67
2024/02/13 09:06:11;;;;;;;3.72;2.60;;;6.80;38.70;;;7.07;100.00;101074.13;6096510;23;20171;-67
2024/02/13 09:08:41;;;;;;;4.10;1.63;;;6.90;1.00;;;6.91;100.00;101084.97;6096483;23;20191;-68
2024/02/13 09:11:12;;;;;;;3.78;1.77;;;6.80;1.00;;;7.01;100.00;101074.84;6096726;23;20610;-67
2024/02/13 09:13:42;;;;;;;10.90;2.50;;;6.90;1.00;;;7.09;100.00;101077.50;6096467;23;20182;-68
2024/02/13 09:16:11;;;;;;;3.30;2.30;;;6.90;1.00;;;7.26;100.00;101084.47;6096296;23;20640;-68
2024/02/13 09:18:41;;;;;;;1.92;1.10;;;7.00;1.00;;;7.33;98.82;101090.00;6096023;23;20190;-68
2024/02/13 09:21:10;;;;;;;3.90;2.40;;;7.10;99.90;;;7.31;98.87;101092.03;6096303;23;20242;-67
2024/02/13 09:23:39;;;;;;;2.47;1.02;;;7.10;99.90;;;7.31;98.53;101087.47;6070830;23;20176;-68
2024/02/13 09:26:07;;;;;;;4.15;1.52;;;7.10;99.90;;;7.16;98.65;101097.31;6096450;23;20164;-68
2024/02/13 09:28:36;;;;;;;3.35;2.30;;;7.00;57.80;;;7.20;99.20;101098.66;6096301;23;20723;-68
2024/02/13 09:31:05;;;;;;;2.20;2.10;;;7.00;99.90;;;7.61;97.14;101106.50;6096552;23;20669;-68
2024/02/13 09:33:34;;;;;;;2.67;1.92;;;7.30;1.00;;;7.58;96.86;101105.00;6096441;23;20163;-69
2024/02/13 09:36:05;;;;;;;2.03;1.33;;;7.30;1.00;;;7.37;96.56;101108.31;6096484;23;20210;-68
2024/02/13 09:38:35;;;;;;;1.75;1.65;;;7.20;1.00;;;7.40;96.82;101105.28;6097058;23;20183;-68
2024/02/13 09:41:05;;;;;;;2.85;1.85;;;7.30;99.90;;;7.23;97.20;101118.97;6096380;23;20148;-68
2024/02/13 09:43:34;;;;;;;3.90;2.83;;;7.20;1.00;;;7.29;96.87;101116.44;6097169;23;20152;-69
2024/02/13 09:46:06;;;;;;;2.78;2.28;;;7.20;1.00;;;7.47;95.38;101118.84;6097239;23;20164;-70
2024/02/13 09:48:38;;;;;;;2.10;1.90;;;7.30;1.00;;;7.73;94.33;101123.94;6097633;23;20187;-68
2024/02/13 09:51:10;;;;;;;2.38;2.17;;;7.50;1.00;;;8.15;93.20;101124.31;6097230;23;20175;-70
2024/02/13 09:53:40;;;;;;;5.90;2.92;;;7.70;1.00;;;8.26;91.35;101125.72;6097523;23;20240;-67
2024/02/13 09:56:12;;;;;;;2.65;1.65;;;7.90;1.00;;;8.36;90.16;101120.13;6098517;23;20182;-68
2024/02/13 09:58:42;;;;;;;3.38;2.03;;;8.00;1.00;;;8.35;88.44;101126.53;6100287;23;20207;-69
2024/02/13 10:01:12;;;;;;;2.28;1.77;;;8.10;99.90;;;8.10;88.98;101129.38;6100997;23;20152;-68
2024/02/13 10:03:41;;;;;;;3.63;2.25;;;8.00;99.90;;;8.23;89.42;101131.47;6100089;23;20348;-69
2024/02/13 10:06:10;;;;;;;2.65;1.80;;;8.10;99.90;;;8.28;87.91;101135.31;6100292;23;20620;-69
2024/02/13 10:08:40;;;;;;;3.53;3.17;;;8.10;99.90;;;8.09;88.23;101130.41;6099768;23;20259;-67
2024/02/13 10:11:14;;;;;;;2.97;2.08;;;8.00;99.90;;;8.36;88.08;101136.28;6099587;23;20171;-67
2024/02/13 10:13:43;;;;;;;2.53;2.13;;;8.10;99.90;;;8.60;86.29;101145.00;6099399;23;20156;-67
2024/02/13 10:16:24;;;;;;;2.40;2.13;;;8.30;99.90;;;8.51;86.56;101140.72;6099215;23;20258;-68
2024/02/13 10:18:54;;;;;;;2.90;2.70;;;8.30;99.90;;;8.23;86.11;101143.09;6099405;23;20187;-68
2024/02/13 10:21:24;;;;;;;2.60;2.40;;;8.20;99.90;;;8.18;86.50;101148.19;6099914;23;20160;-67
2024/02/13 10:24:04;;;;;;;1.50;1.40;;;8.10;99.90;;;8.28;86.72;101154.19;6099926;23;20162;-69
2024/02/13 10:26:34;;;;;;;3.72;1.88;;;8.10;99.90;;;8.25;86.39;101143.75;6099750;23;20147;-68
2024/02/13 10:29:03;;;;;;;1.63;1.50;;;8.10;99.90;;;8.15;86.96;101151.25;6099216;23;20230;-69
2024/02/13 10:31:34;;;;;;;2.55;2.35;;;8.10;99.90;;;8.28;86.05;101158.72;6099660;23;20490;-67
2024/02/13 10:34:05;;;;;;;1.88;1.50;;;8.10;99.90;;;8.54;84.98;101161.06;6099399;23;20644;-68
2024/02/13 10:36:34;;;;;;;2.88;2.67;;;8.30;99.90;;;8.40;84.60;101159.19;6100868;23;20171;-66